Time;durP1;ratioP1;P1;durP2;ratioP2;P2;SDS_P1;SDS_P2;PMS_P1;PMS_P2;Temp;Humidity;BMP_temperature;BMP_pressure;BME280_temperature;BME280_humidity;BME280_pressure;Samples;Min_cycle;Max_cycle;Signal;HPM_P1;HPM_P2
2023/03/28 00:02:23;;;;;;;8.90;1.15;;;3.60;99.90;;;;;;4974730;28;20417;-59
2023/03/28 00:04:48;;;;;;;12.52;2.35;;;3.60;99.90;;;;;;4979652;28;20113;-59
2023/03/28 00:07:14;;;;;;;14.88;1.52;;;3.60;99.90;;;;;;4986838;28;20116;-58
2023/03/28 00:09:40;;;;;;;9.95;1.50;;;3.60;99.90;;;;;;4972981;28;20126;-59
2023/03/28 00:12:06;;;;;;;7.63;1.25;;;3.60;99.90;;;;;;4956519;28;20174;-59
2023/03/28 00:14:34;;;;;;;7.50;1.20;;;3.60;99.90;;;;;;4978207;28;20389;-58
2023/03/28 00:17:00;;;;;;;19.33;1.80;;;3.60;99.90;;;;;;4973782;28;20125;-59
2023/03/28 00:19:31;;;;;;;9.93;1.50;;;3.60;99.90;;;;;;4977592;28;20034;-59
2023/03/28 00:21:58;;;;;;;10.43;1.45;;;3.60;99.90;;;;;;4961230;28;20039;-59
2023/03/28 00:24:24;;;;;;;8.45;1.10;;;3.50;99.90;;;;;;4982467;28;20046;-59
2023/03/28 00:26:54;;;;;;;6.28;1.20;;;3.60;99.90;;;;;;4972950;28;20043;-58
2023/03/28 00:29:21;;;;;;;12.13;1.10;;;3.50;99.90;;;;;;4988027;28;20049;-59
2023/03/28 00:31:48;;;;;;;7.70;1.35;;;3.50;99.90;;;;;;4978018;28;20031;-58
2023/03/28 00:34:15;;;;;;;8.77;1.17;;;3.50;99.90;;;;;;4972532;28;20050;-59
2023/03/28 00:36:41;;;;;;;11.35;1.60;;;3.40;99.90;;;;;;4947671;28;20047;-58
2023/03/28 00:39:09;;;;;;;9.13;1.58;;;3.40;99.90;;;;;;4974446;28;20114;-59
2023/03/28 00:41:41;;;;;;;14.70;1.50;;;3.30;99.90;;;;;;4978068;28;20041;-59
2023/03/28 00:44:43;;;;;;;8.85;1.38;;;3.30;99.90;;;;;;4982858;28;20110;-58
2023/03/28 00:47:26;;;;;;;11.18;1.40;;;3.20;99.90;;;;;;4971193;28;20074;-58
2023/03/28 00:50:26;;;;;;;6.75;1.10;;;3.20;99.90;;;;;;4976218;28;20042;-59
2023/03/28 00:52:55;;;;;;;6.85;1.25;;;3.10;99.90;;;;;;4981165;28;20061;-58
2023/03/28 00:55:29;;;;;;;15.00;1.55;;;3.10;99.90;;;;;;4982723;28;20086;-58
2023/03/28 00:57:55;;;;;;;12.07;1.48;;;3.10;99.90;;;;;;4986704;28;20046;-58
2023/03/28 01:00:22;;;;;;;9.43;1.45;;;3.00;99.90;;;;;;4982021;28;20045;-59
2023/03/28 01:02:51;;;;;;;8.57;1.75;;;3.00;99.90;;;;;;4975176;28;20068;-59
2023/03/28 01:05:25;;;;;;;7.63;1.25;;;3.00;99.90;;;;;;4975742;28;20093;-58
2023/03/28 01:07:57;;;;;;;4.78;1.08;;;3.00;99.90;;;;;;4976469;28;20062;-59
2023/03/28 01:10:23;;;;;;;7.93;1.48;;;3.00;99.90;;;;;;4983475;28;20062;-58
2023/03/28 01:12:52;;;;;;;8.02;1.17;;;3.00;99.90;;;;;;4987931;28;20054;-58
2023/03/28 01:15:18;;;;;;;8.07;1.02;;;3.10;99.90;;;;;;4983191;28;20084;-59
2023/03/28 01:17:45;;;;;;;10.52;1.65;;;2.90;99.90;;;;;;4986177;28;20070;-58
2023/03/28 01:20:48;;;;;;;6.60;1.30;;;2.90;99.90;;;;;;4977460;28;20048;-58
2023/03/28 01:23:22;;;;;;;8.60;1.17;;;2.90;99.90;;;;;;4978701;28;20446;-59
2023/03/28 01:26:05;;;;;;;9.93;1.45;;;2.80;99.90;;;;;;4978214;28;20118;-58
2023/03/28 01:28:42;;;;;;;10.05;1.45;;;2.80;99.90;;;;;;4980096;28;20505;-58
2023/03/28 01:31:34;;;;;;;13.38;1.27;;;2.80;99.90;;;;;;4977167;28;20038;-59
2023/03/28 01:34:18;;;;;;;9.23;1.10;;;2.70;99.90;;;;;;4987112;28;20035;-59
2023/03/28 01:37:02;;;;;;;6.55;1.05;;;2.60;99.90;;;;;;4982934;28;20058;-59
2023/03/28 01:39:42;;;;;;;10.77;1.40;;;2.50;99.90;;;;;;4975233;28;20031;-58
2023/03/28 01:42:43;;;;;;;5.32;0.85;;;2.50;99.90;;;;;;4976599;28;20519;-59
2023/03/28 01:45:43;;;;;;;7.93;1.17;;;2.50;99.90;;;;;;4976521;28;20047;-58
2023/03/28 01:48:16;;;;;;;7.88;1.05;;;2.40;99.90;;;;;;4967351;28;20050;-59
2023/03/28 01:50:49;;;;;;;7.85;1.35;;;2.40;99.90;;;;;;4985500;28;20169;-59
2023/03/28 01:53:38;;;;;;;7.95;1.52;;;2.40;99.90;;;;;;4977543;28;20114;-59
2023/03/28 01:56:10;;;;;;;9.85;1.23;;;2.40;99.90;;;;;;4980593;28;20121;-58
2023/03/28 01:58:47;;;;;;;7.28;0.82;;;2.30;99.90;;;;;;4985745;28;20047;-58
2023/03/28 02:01:25;;;;;;;10.85;1.33;;;2.30;99.90;;;;;;4977139;28;20038;-59
2023/03/28 02:04:00;;;;;;;5.43;1.20;;;2.30;99.90;;;;;;4986556;28;20116;-59
2023/03/28 02:06:27;;;;;;;8.13;1.13;;;2.30;99.90;;;;;;4977899;28;20054;-59
2023/03/28 02:08:54;;;;;;;9.25;1.10;;;2.30;99.90;;;;;;4967975;28;20046;-59
2023/03/28 02:11:20;;;;;;;5.55;0.90;;;2.30;99.90;;;;;;4976983;28;20113;-59
2023/03/28 02:14:06;;;;;;;6.20;1.00;;;2.30;99.90;;;;;;4963167;28;20553;-58
2023/03/28 02:16:37;;;;;;;8.70;0.95;;;2.30;99.90;;;;;;4974757;28;20113;-58
2023/03/28 02:19:03;;;;;;;5.80;0.80;;;2.30;99.90;;;;;;4962375;28;20388;-58
2023/03/28 02:21:53;;;;;;;5.88;1.15;;;2.30;99.90;;;;;;4992838;28;20516;-59
2023/03/28 02:24:19;;;;;;;7.45;1.35;;;2.30;99.90;;;;;;4981284;28;20042;-58
2023/03/28 02:26:45;;;;;;;7.70;1.02;;;2.30;99.90;;;;;;4964658;28;20121;-58
2023/03/28 02:29:13;;;;;;;8.73;1.08;;;2.30;99.90;;;;;;4975761;28;20070;-59
2023/03/28 02:31:38;;;;;;;16.70;1.48;;;2.30;99.90;;;;;;4981311;28;20042;-59
2023/03/28 02:34:04;;;;;;;8.88;0.95;;;2.30;99.90;;;;;;4975152;28;20090;-58
2023/03/28 02:36:36;;;;;;;8.63;0.98;;;2.30;99.90;;;;;;4989951;28;20045;-59
2023/03/28 02:39:10;;;;;;;7.10;1.58;;;2.30;99.90;;;;;;4983708;28;20174;-58
2023/03/28 02:41:51;;;;;;;9.15;1.42;;;2.30;99.90;;;;;;4975413;28;20053;-58
2023/03/28 02:44:17;;;;;;;5.15;1.17;;;2.30;99.90;;;;;;4976851;28;20122;-58
2023/03/28 02:46:57;;;;;;;8.38;1.38;;;2.30;99.90;;;;;;4982825;28;20121;-59
2023/03/28 02:49:31;;;;;;;11.75;1.33;;;2.30;99.90;;;;;;4978760;28;20053;-58
2023/03/28 02:52:09;;;;;;;11.52;1.67;;;2.30;99.90;;;;;;4985492;28;20045;-58
2023/03/28 02:54:53;;;;;;;7.38;1.10;;;2.30;99.90;;;;;;4980736;28;20038;-59
2023/03/28 02:57:31;;;;;;;7.45;1.40;;;2.30;99.90;;;;;;4978852;28;20042;-59
2023/03/28 03:00:11;;;;;;;7.00;1.15;;;2.30;99.90;;;;;;4981426;28;20094;-58
2023/03/28 03:02:42;;;;;;;6.18;1.10;;;2.40;99.90;;;;;;4992939;28;20074;-59
2023/03/28 03:05:08;;;;;;;5.50;1.10;;;2.30;99.90;;;;;;4982348;28;20047;-58
2023/03/28 03:07:38;;;;;;;4.75;0.95;;;2.30;99.90;;;;;;4975704;28;20042;-59
2023/03/28 03:10:06;;;;;;;10.23;1.25;;;2.30;99.90;;;;;;4974893;28;20045;-59
2023/03/28 03:12:32;;;;;;;9.73;1.20;;;2.40;99.90;;;;;;4975436;28;20363;-59
2023/03/28 03:14:59;;;;;;;8.68;1.30;;;2.40;99.90;;;;;;4973555;28;20105;-58
2023/03/28 03:17:26;;;;;;;7.43;1.35;;;2.40;99.90;;;;;;4977365;28;20438;-59
2023/03/28 03:19:51;;;;;;;3.55;1.15;;;2.40;99.90;;;;;;4983469;28;20042;-59
2023/03/28 03:22:17;;;;;;;14.18;1.40;;;2.40;99.90;;;;;;4972972;28;20042;-58
2023/03/28 03:24:43;;;;;;;8.57;1.08;;;2.30;99.90;;;;;;4973508;28;20117;-57
2023/03/28 03:27:09;;;;;;;5.97;1.13;;;2.40;99.90;;;;;;4974634;28;20129;-58
2023/03/28 03:29:35;;;;;;;7.60;1.10;;;2.30;99.90;;;;;;4973564;28;20110;-58
2023/03/28 03:32:00;;;;;;;6.93;1.05;;;2.30;99.90;;;;;;4974097;28;20038;-59
2023/03/28 03:34:26;;;;;;;5.30;1.00;;;2.20;99.90;;;;;;4973010;28;20054;-59
2023/03/28 03:36:53;;;;;;;7.50;1.30;;;2.10;99.90;;;;;;4985542;28;20533;-59
2023/03/28 03:39:20;;;;;;;10.93;1.23;;;2.00;99.90;;;;;;4978576;28;20046;-58
2023/03/28 03:41:46;;;;;;;9.18;1.05;;;2.00;99.90;;;;;;4979030;28;20478;-58
2023/03/28 03:44:12;;;;;;;10.63;1.65;;;1.80;99.90;;;;;;4982399;28;20034;-59
2023/03/28 03:46:38;;;;;;;10.55;1.33;;;1.80;99.90;;;;;;4979411;28;20054;-58
2023/03/28 03:49:03;;;;;;;9.20;1.42;;;1.70;99.90;;;;;;4975632;28;20094;-58
2023/03/28 03:51:29;;;;;;;8.80;1.63;;;1.60;99.90;;;;;;4985831;28;20097;-59
2023/03/28 03:53:57;;;;;;;5.30;1.20;;;1.60;99.90;;;;;;4982730;28;20045;-58
2023/03/28 03:56:22;;;;;;;6.32;1.55;;;1.60;99.90;;;;;;4973121;28;20047;-59
2023/03/28 03:58:48;;;;;;;7.65;1.20;;;1.50;99.90;;;;;;4980313;28;20041;-59
2023/03/28 04:01:14;;;;;;;8.38;1.50;;;1.60;99.90;;;;;;4973844;28;20034;-58
2023/03/28 04:03:43;;;;;;;10.00;1.45;;;1.60;99.90;;;;;;4982878;28;20082;-58
2023/03/28 04:06:09;;;;;;;10.57;1.30;;;1.60;99.90;;;;;;4974840;28;20054;-58
2023/03/28 04:08:35;;;;;;;5.95;1.58;;;1.60;99.90;;;;;;4979098;28;20047;-58
2023/03/28 04:11:00;;;;;;;7.18;1.45;;;1.60;99.90;;;;;;4980564;28;20072;-58
2023/03/28 04:13:26;;;;;;;6.22;1.80;;;1.60;99.90;;;;;;4980255;28;20105;-59
2023/03/28 04:15:52;;;;;;;5.82;1.05;;;1.60;99.90;;;;;;4973561;28;20034;-58
2023/03/28 04:18:19;;;;;;;10.18;1.20;;;1.60;99.90;;;;;;4980514;28;20078;-58
2023/03/28 04:20:52;;;;;;;10.68;1.35;;;1.50;99.90;;;;;;4974251;28;20051;-58
2023/03/28 04:23:19;;;;;;;7.55;1.25;;;1.50;99.90;;;;;;4977477;28;20512;-59
2023/03/28 04:25:48;;;;;;;8.88;1.20;;;1.50;99.90;;;;;;4972752;28;20057;-58
2023/03/28 04:28:15;;;;;;;12.13;1.40;;;1.50;99.90;;;;;;4987857;28;20523;-58
2023/03/28 04:30:42;;;;;;;6.20;1.38;;;1.50;99.90;;;;;;4978675;28;20395;-58
2023/03/28 04:33:08;;;;;;;6.43;1.13;;;1.50;99.90;;;;;;4956854;28;20053;-58
2023/03/28 04:35:34;;;;;;;5.53;1.40;;;1.70;99.90;;;;;;4973349;28;20419;-58
2023/03/28 04:38:01;;;;;;;8.63;1.42;;;1.40;99.90;;;;;;4979117;28;20039;-58
2023/03/28 04:40:28;;;;;;;4.88;1.00;;;1.50;99.90;;;;;;4979515;28;20043;-59
2023/03/28 04:42:54;;;;;;;10.18;1.20;;;1.40;99.90;;;;;;4979544;28;20039;-58
2023/03/28 04:45:20;;;;;;;8.45;1.35;;;1.50;99.90;;;;;;4994627;28;20041;-58
2023/03/28 04:47:46;;;;;;;7.95;1.40;;;1.40;99.90;;;;;;4988073;28;20596;-58
2023/03/28 04:50:12;;;;;;;5.60;1.45;;;1.50;99.90;;;;;;4979709;28;20035;-58
2023/03/28 04:52:38;;;;;;;5.57;1.20;;;1.40;99.90;;;;;;4985181;28;20039;-59
2023/03/28 04:55:04;;;;;;;7.00;1.20;;;1.40;99.90;;;;;;4982827;28;20038;-59
2023/03/28 04:57:30;;;;;;;8.68;1.33;;;1.40;99.90;;;;;;4983699;28;20470;-59
2023/03/28 04:59:56;;;;;;;6.03;1.23;;;1.20;99.90;;;;;;4979168;28;20038;-59
2023/03/28 05:02:21;;;;;;;5.28;1.42;;;1.20;99.90;;;;;;4986852;28;20042;-58
2023/03/28 05:04:47;;;;;;;13.10;1.42;;;1.50;99.90;;;;;;4982003;28;20065;-59
2023/03/28 05:07:13;;;;;;;10.13;1.80;;;1.30;99.90;;;;;;4982485;28;20140;-58
2023/03/28 05:09:38;;;;;;;6.28;1.60;;;1.10;99.90;;;;;;4979877;28;20587;-59
2023/03/28 05:12:04;;;;;;;7.18;1.23;;;1.00;99.90;;;;;;4979500;28;20053;-58
2023/03/28 05:14:30;;;;;;;6.05;1.30;;;1.00;99.90;;;;;;4988685;28;20128;-58
2023/03/28 05:16:56;;;;;;;10.10;2.05;;;1.10;99.90;;;;;;4973577;28;20053;-59
2023/03/28 05:19:23;;;;;;;11.25;2.10;;;1.10;99.90;;;;;;4979077;28;20085;-58
2023/03/28 05:21:49;;;;;;;5.45;1.17;;;1.00;99.90;;;;;;4963566;28;20051;-58
2023/03/28 05:24:15;;;;;;;8.20;1.63;;;0.90;99.90;;;;;;4986087;28;20122;-59
2023/03/28 05:26:40;;;;;;;6.20;1.30;;;1.10;99.90;;;;;;4978752;28;20043;-58
2023/03/28 05:29:06;;;;;;;7.75;1.20;;;1.00;99.90;;;;;;4984080;28;20042;-58
2023/03/28 05:31:32;;;;;;;7.50;1.58;;;0.90;99.90;;;;;;4960466;28;20502;-58
2023/03/28 05:33:58;;;;;;;6.22;1.40;;;1.10;99.90;;;;;;4979609;28;20469;-58
2023/03/28 05:36:24;;;;;;;8.73;1.80;;;1.10;99.90;;;;;;4979067;28;20038;-59
2023/03/28 05:38:50;;;;;;;7.47;1.92;;;1.10;99.90;;;;;;4979689;28;20163;-59
2023/03/28 05:41:16;;;;;;;9.95;2.28;;;1.10;99.90;;;;;;4986134;28;20061;-58
2023/03/28 05:43:42;;;;;;;11.63;2.28;;;1.10;99.90;;;;;;4995263;28;20430;-59
2023/03/28 05:46:07;;;;;;;6.60;1.88;;;1.00;99.90;;;;;;4996878;28;20053;-58
2023/03/28 05:48:33;;;;;;;8.00;2.28;;;1.10;99.90;;;;;;4979204;28;20051;-58
2023/03/28 05:50:59;;;;;;;9.32;2.10;;;1.10;99.90;;;;;;4946670;28;20039;-58
2023/03/28 05:53:24;;;;;;;7.43;2.13;;;1.00;99.90;;;;;;4977030;28;20042;-58
2023/03/28 05:55:50;;;;;;;8.50;2.20;;;0.90;99.90;;;;;;4977486;28;20047;-58
2023/03/28 05:58:16;;;;;;;11.23;2.67;;;1.00;99.90;;;;;;4974287;28;20042;-58
2023/03/28 06:00:43;;;;;;;10.95;2.80;;;0.90;99.90;;;;;;4958844;28;20050;-58
2023/03/28 06:03:10;;;;;;;8.35;2.40;;;0.80;99.90;;;;;;4978162;28;20068;-58
2023/03/28 06:05:35;;;;;;;11.65;3.20;;;0.90;99.90;;;;;;4975478;28;20189;-59
2023/03/28 06:08:02;;;;;;;10.27;2.65;;;0.80;99.90;;;;;;4986066;28;20185;-58
2023/03/28 06:10:27;;;;;;;11.75;3.42;;;0.80;99.90;;;;;;4978430;28;20473;-58
2023/03/28 06:12:53;;;;;;;9.65;2.97;;;0.70;99.90;;;;;;4993647;28;20042;-58
2023/03/28 06:15:19;;;;;;;8.65;3.35;;;0.60;99.90;;;;;;4983828;28;20044;-58
2023/03/28 06:17:45;;;;;;;10.00;3.38;;;0.70;99.90;;;;;;4976668;28;20049;-58
2023/03/28 06:20:10;;;;;;;12.38;3.38;;;0.70;99.90;;;;;;4975442;28;20038;-58
2023/03/28 06:22:37;;;;;;;11.75;3.78;;;0.80;99.90;;;;;;4975655;28;20042;-58
2023/03/28 06:25:04;;;;;;;8.13;3.03;;;0.70;99.90;;;;;;4975024;28;20053;-58
2023/03/28 06:27:31;;;;;;;13.50;3.03;;;0.80;99.90;;;;;;4975442;28;20413;-58
2023/03/28 06:29:58;;;;;;;12.68;3.38;;;0.80;99.90;;;;;;4975912;28;20041;-59
2023/03/28 06:32:24;;;;;;;12.57;3.40;;;0.80;99.90;;;;;;4962343;28;20042;-58
2023/03/28 06:34:50;;;;;;;10.48;3.33;;;0.80;99.90;;;;;;4979859;28;20056;-58
2023/03/28 06:37:15;;;;;;;10.70;3.42;;;0.90;99.90;;;;;;4963685;28;20126;-59
2023/03/28 06:39:41;;;;;;;10.52;2.90;;;1.20;99.90;;;;;;4978627;28;20034;-58
2023/03/28 06:42:07;;;;;;;11.88;3.38;;;0.90;99.90;;;;;;4977499;28;21318;-58
2023/03/28 06:44:32;;;;;;;12.98;3.67;;;1.10;99.90;;;;;;4981540;28;20487;-58
2023/03/28 06:46:58;;;;;;;9.65;3.30;;;0.90;99.90;;;;;;4974491;28;20536;-58
2023/03/28 06:49:24;;;;;;;13.20;3.92;;;1.10;99.90;;;;;;4992002;28;20485;-58
2023/03/28 06:51:50;;;;;;;11.90;3.42;;;1.10;99.90;;;;;;4978022;28;20038;-58
2023/03/28 06:54:16;;;;;;;11.32;3.33;;;1.00;99.90;;;;;;4992421;28;20046;-58
2023/03/28 06:56:41;;;;;;;12.27;3.00;;;1.20;99.90;;;;;;4978687;28;20478;-58
2023/03/28 06:59:07;;;;;;;10.75;3.42;;;1.10;99.90;;;;;;4965163;28;20367;-58
2023/03/28 07:01:33;;;;;;;12.93;3.38;;;1.20;99.90;;;;;;4985389;28;20061;-58
2023/03/28 07:03:58;;;;;;;15.07;3.72;;;1.40;99.90;;;;;;4968374;28;20157;-58
2023/03/28 07:06:26;;;;;;;14.30;3.33;;;1.40;99.90;;;;;;4969414;28;20062;-58
2023/03/28 07:08:52;;;;;;;13.82;3.25;;;1.50;99.90;;;;;;4969965;28;20030;-58
2023/03/28 07:11:18;;;;;;;15.52;2.90;;;1.50;99.90;;;;;;4969290;28;20035;-58
2023/03/28 07:13:44;;;;;;;12.63;3.25;;;1.80;99.90;;;;;;4963077;28;20069;-58
2023/03/28 07:16:13;;;;;;;9.63;3.50;;;1.70;99.90;;;;;;4967882;28;20042;-58
2023/03/28 07:18:40;;;;;;;10.43;2.97;;;1.90;99.90;;;;;;4954500;28;20042;-59
2023/03/28 07:21:13;;;;;;;10.02;2.90;;;2.00;99.90;;;;;;4963213;28;20092;-57
2023/03/28 07:23:39;;;;;;;7.38;3.00;;;2.30;99.90;;;;;;4968172;28;20042;-59
2023/03/28 07:26:06;;;;;;;9.73;2.70;;;2.50;99.90;;;;;;4969541;28;20092;-59
2023/03/28 07:28:32;;;;;;;6.97;2.28;;;2.30;99.90;;;;;;4968684;28;20057;-58
2023/03/28 07:31:00;;;;;;;6.15;2.55;;;2.50;99.90;;;;;;4969076;28;20485;-59
2023/03/28 07:33:27;;;;;;;12.50;2.45;;;2.60;99.90;;;;;;4968075;28;20477;-58
2023/03/28 07:35:52;;;;;;;13.63;3.05;;;2.70;99.90;;;;;;4967508;28;20490;-59
2023/03/28 07:38:18;;;;;;;8.05;2.70;;;2.70;99.90;;;;;;4971487;28;20046;-58
2023/03/28 07:40:44;;;;;;;9.10;2.78;;;2.80;99.90;;;;;;4968409;28;20477;-58
2023/03/28 07:43:11;;;;;;;8.60;2.45;;;2.80;99.90;;;;;;4969204;28;20457;-58
2023/03/28 07:45:36;;;;;;;11.48;2.35;;;3.00;99.90;;;;;;4966969;28;20054;-59
2023/03/28 07:48:05;;;;;;;8.75;2.00;;;3.00;99.90;;;;;;4972133;28;20039;-58
2023/03/28 07:50:31;;;;;;;9.90;2.45;;;3.20;99.90;;;;;;4968726;28;20039;-58
2023/03/28 07:52:58;;;;;;;7.72;1.88;;;3.20;99.90;;;;;;4961863;28;20042;-58
2023/03/28 07:55:25;;;;;;;10.38;2.33;;;3.30;99.90;;;;;;4970167;28;20034;-58
2023/03/28 07:57:51;;;;;;;10.18;2.45;;;3.30;99.90;;;;;;4966110;28;20045;-58
2023/03/28 08:00:18;;;;;;;7.13;1.80;;;3.40;99.90;;;;;;4969787;28;20442;-58
2023/03/28 08:02:43;;;;;;;11.48;2.53;;;3.50;99.90;;;;;;4966528;28;20035;-59
2023/03/28 08:05:09;;;;;;;8.98;2.20;;;3.60;99.90;;;;;;4968046;28;20317;-58
2023/03/28 08:07:35;;;;;;;8.85;2.22;;;4.10;99.90;;;;;;4968616;28;20075;-58
2023/03/28 08:10:01;;;;;;;7.40;2.20;;;3.70;99.90;;;;;;4968165;28;20039;-58
2023/03/28 08:12:28;;;;;;;11.38;2.72;;;3.80;99.90;;;;;;4967689;28;20046;-59
2023/03/28 08:14:54;;;;;;;10.32;1.83;;;4.00;99.90;;;;;;4965629;28;20051;-59
2023/03/28 08:17:20;;;;;;;6.68;1.50;;;4.20;99.90;;;;;;4971049;28;20031;-59
2023/03/28 08:19:46;;;;;;;8.93;1.75;;;4.40;99.90;;;;;;4966950;28;20037;-59
2023/03/28 08:22:12;;;;;;;8.25;2.00;;;4.50;99.90;;;;;;4971316;28;20478;-59
2023/03/28 08:24:39;;;;;;;4.05;1.50;;;4.70;99.90;;;;;;4969294;28;20493;-59
2023/03/28 08:27:05;;;;;;;5.80;1.73;;;4.80;99.90;;;;;;4968745;28;20053;-59
2023/03/28 08:29:30;;;;;;;10.13;1.83;;;4.90;99.90;;;;;;4943749;28;20490;-59
2023/03/28 08:31:56;;;;;;;5.30;1.67;;;5.00;99.90;;;;;;4972969;28;20030;-58
2023/03/28 08:34:22;;;;;;;4.70;1.75;;;5.10;99.90;;;;;;4966631;28;20066;-59
2023/03/28 08:36:48;;;;;;;6.35;1.48;;;5.50;99.90;;;;;;4967278;28;20389;-58
2023/03/28 08:39:14;;;;;;;6.72;1.60;;;5.30;99.90;;;;;;4952768;28;20034;-59
2023/03/28 08:41:46;;;;;;;7.63;1.67;;;5.50;99.90;;;;;;4970957;28;20433;-60
2023/03/28 08:44:30;;;;;;;6.13;1.50;;;5.50;99.90;;;;;;4966824;28;20117;-59
2023/03/28 08:47:08;;;;;;;7.88;1.60;;;5.60;99.90;;;;;;4967554;28;20839;-59
2023/03/28 08:49:42;;;;;;;8.15;1.55;;;5.70;99.90;;;;;;4968509;28;20047;-59
2023/03/28 08:52:14;;;;;;;5.95;1.98;;;5.70;99.90;;;;;;4967310;28;20050;-59
2023/03/28 08:55:00;;;;;;;4.15;1.90;;;5.70;99.90;;;;;;4969134;28;20035;-59
2023/03/28 08:57:28;;;;;;;6.68;1.80;;;5.70;99.90;;;;;;4968759;28;20089;-58
2023/03/28 09:00:13;;;;;;;11.25;1.95;;;7.00;99.90;;;;;;4965993;28;20031;-58
2023/03/28 09:02:41;;;;;;;6.80;1.88;;;5.80;99.90;;;;;;4968992;28;20089;-59
2023/03/28 09:05:24;;;;;;;5.75;1.70;;;5.90;99.90;;;;;;4970569;28;20062;-58
2023/03/28 09:08:23;;;;;;;6.90;1.63;;;6.00;99.90;;;;;;4968819;28;20495;-59
2023/03/28 09:11:07;;;;;;;7.63;2.08;;;6.10;99.90;;;;;;4968161;28;20070;-58
2023/03/28 09:13:50;;;;;;;5.53;1.58;;;6.20;99.90;;;;;;4970075;28;20323;-58
2023/03/28 09:16:52;;;;;;;9.00;1.60;;;6.40;99.90;;;;;;4974527;28;20481;-59
2023/03/28 09:19:29;;;;;;;6.93;1.55;;;6.60;99.90;;;;;;4969221;28;20038;-59
2023/03/28 09:22:06;;;;;;;10.27;1.20;;;6.70;99.90;;;;;;4976469;28;20338;-58
2023/03/28 09:24:49;;;;;;;7.32;1.15;;;6.70;99.90;;;;;;4977831;28;20034;-58
2023/03/28 09:27:24;;;;;;;5.03;0.80;;;6.80;99.90;;;;;;4981518;28;20046;-59
2023/03/28 09:29:55;;;;;;;7.88;1.45;;;6.90;99.90;;;;;;4981314;28;20392;-59
2023/03/28 09:32:31;;;;;;;5.13;1.33;;;7.00;99.90;;;;;;4976895;28;20089;-59
2023/03/28 09:34:58;;;;;;;7.65;1.20;;;6.90;99.90;;;;;;4969855;28;20382;-59
2023/03/28 09:37:44;;;;;;;9.13;1.50;;;7.10;99.90;;;;;;4970228;28;20037;-59
2023/03/28 09:40:45;;;;;;;4.82;1.38;;;6.90;99.90;;;;;;4954296;28;20513;-58
2023/03/28 09:43:33;;;;;;;6.57;1.58;;;6.90;99.90;;;;;;4954499;28;20047;-59
2023/03/28 09:46:05;;;;;;;7.57;1.70;;;7.00;99.90;;;;;;4971401;28;20038;-57
2023/03/28 09:48:35;;;;;;;4.28;1.60;;;7.00;99.90;;;;;;4972786;28;20050;-58
2023/03/28 09:51:03;;;;;;;9.30;1.77;;;7.00;99.90;;;;;;4981075;28;20051;-59
2023/03/28 09:53:35;;;;;;;7.93;1.60;;;7.00;99.90;;;;;;4970560;28;20035;-59
2023/03/28 09:56:38;;;;;;;7.20;1.50;;;7.10;99.90;;;;;;4971246;28;20761;-59
2023/03/28 09:59:10;;;;;;;5.47;1.77;;;7.10;99.90;;;;;;4968588;28;20049;-58
2023/03/28 10:01:48;;;;;;;5.38;1.73;;;7.10;99.90;;;;;;4969878;28;20042;-59
2023/03/28 10:04:19;;;;;;;6.40;1.85;;;7.10;99.90;;;;;;4980028;28;20067;-59
2023/03/28 10:06:46;;;;;;;9.27;2.38;;;7.20;99.90;;;;;;4968996;28;20505;-59
2023/03/28 10:09:18;;;;;;;8.00;2.15;;;7.20;99.90;;;;;;4970091;28;20042;-59
2023/03/28 10:11:48;;;;;;;7.07;1.80;;;7.20;99.90;;;;;;4961937;28;20038;-59
2023/03/28 10:14:32;;;;;;;8.73;2.47;;;7.30;99.90;;;;;;4971608;28;20042;-59
2023/03/28 10:17:13;;;;;;;6.20;2.05;;;7.30;99.90;;;;;;4970339;28;20066;-59
2023/03/28 10:19:42;;;;;;;8.35;1.88;;;7.40;99.90;;;;;;4968652;28;20038;-59
2023/03/28 10:22:15;;;;;;;7.15;1.88;;;7.40;99.90;;;;;;4969341;28;20039;-59
2023/03/28 10:24:42;;;;;;;6.63;1.90;;;7.40;99.90;;;;;;4959188;28;20121;-59
2023/03/28 10:27:22;;;;;;;8.63;1.90;;;7.50;99.90;;;;;;4974478;28;20077;-59
2023/03/28 10:29:51;;;;;;;6.28;2.20;;;7.50;99.90;;;;;;4971444;28;20057;-59
2023/03/28 10:32:25;;;;;;;8.05;2.08;;;7.50;99.90;;;;;;4971336;28;20042;-59
2023/03/28 10:35:05;;;;;;;6.40;2.30;;;7.50;99.90;;;;;;4970858;28;20505;-59
2023/03/28 10:37:33;;;;;;;7.70;2.63;;;7.50;99.90;;;;;;4970299;28;20035;-59
2023/03/28 10:40:16;;;;;;;8.00;2.45;;;7.50;99.90;;;;;;4969176;28;20088;-58
2023/03/28 10:42:44;;;;;;;9.18;2.17;;;7.50;99.90;;;;;;4969963;28;20089;-59
2023/03/28 10:45:35;;;;;;;10.05;2.92;;;7.50;99.90;;;;;;4969179;28;20137;-59
2023/03/28 10:48:15;;;;;;;7.68;2.65;;;7.50;99.90;;;;;;4962837;28;20054;-58
2023/03/28 10:50:46;;;;;;;9.07;2.63;;;7.50;99.90;;;;;;4969584;28;20042;-59
2023/03/28 10:53:24;;;;;;;6.53;2.70;;;7.40;99.90;;;;;;4969114;28;20054;-58
2023/03/28 10:55:53;;;;;;;7.85;3.05;;;7.40;99.90;;;;;;4978159;28;20042;-59
2023/03/28 10:58:30;;;;;;;7.75;2.83;;;7.50;99.90;;;;;;4969494;28;20058;-59
2023/03/28 11:01:19;;;;;;;6.20;2.50;;;7.50;99.90;;;;;;4967982;28;20121;-59
2023/03/28 11:04:04;;;;;;;6.80;2.45;;;7.50;99.90;;;;;;4972353;28;20093;-59
2023/03/28 11:07:00;;;;;;;7.05;2.75;;;7.60;99.90;;;;;;4971394;28;20583;-59
2023/03/28 11:09:35;;;;;;;8.48;2.63;;;7.80;99.90;;;;;;4965421;28;20402;-59
2023/03/28 11:12:15;;;;;;;7.55;2.85;;;7.90;99.90;;;;;;4969790;28;20050;-59
2023/03/28 11:14:46;;;;;;;9.05;2.83;;;8.00;99.90;;;;;;4970978;28;20556;-59
2023/03/28 11:17:15;;;;;;;7.38;2.42;;;8.00;99.90;;;;;;4970075;28;20508;-59
2023/03/28 11:20:16;;;;;;;8.38;2.75;;;8.00;99.90;;;;;;4969024;28;20045;-59
2023/03/28 11:22:56;;;;;;;8.65;2.15;;;8.00;99.90;;;;;;4968822;28;20053;-59
2023/03/28 11:26:09;;;;;;;6.45;2.13;;;8.00;99.90;;;;;;4969880;28;20038;-59
2023/03/28 11:28:53;;;;;;;8.20;2.30;;;8.10;99.90;;;;;;4958393;28;20053;-60
2023/03/28 11:31:38;;;;;;;5.95;2.00;;;8.30;99.90;;;;;;4970836;28;20045;-59
2023/03/28 11:34:21;;;;;;;7.00;1.95;;;8.40;99.90;;;;;;4968405;28;20093;-59
2023/03/28 11:36:57;;;;;;;8.38;1.90;;;8.40;99.90;;;;;;4969029;28;20374;-59
2023/03/28 11:39:50;;;;;;;8.80;2.35;;;8.50;99.90;;;;;;4970617;28;20046;-59
2023/03/28 11:42:27;;;;;;;7.28;2.10;;;8.50;99.90;;;;;;4970776;28;20028;-59
2023/03/28 11:45:11;;;;;;;6.15;2.20;;;8.60;99.90;;;;;;4970022;28;20122;-58
2023/03/28 11:48:25;;;;;;;7.72;2.17;;;8.70;99.90;;;;;;4969920;28;20042;-55
2023/03/28 11:51:05;;;;;;;8.05;2.10;;;8.80;99.90;;;;;;4964726;28;20164;-56
2023/03/28 11:53:52;;;;;;;5.68;2.40;;;8.80;99.90;;;;;;4970742;28;20042;-59
2023/03/28 11:56:42;;;;;;;7.53;2.50;;;9.00;99.90;;;;;;4971743;28;20038;-59
2023/03/28 11:59:59;;;;;;;6.30;1.92;;;8.90;99.90;;;;;;4966843;28;20034;-59
2023/03/28 12:02:43;;;;;;;7.05;2.10;;;8.80;99.90;;;;;;4955597;28;20488;-59
2023/03/28 12:05:31;;;;;;;7.97;2.35;;;8.80;99.90;;;;;;4967503;28;20720;-59
2023/03/28 12:08:09;;;;;;;6.00;2.13;;;8.90;99.90;;;;;;4968869;28;20054;-55
2023/03/28 12:10:36;;;;;;;9.45;2.30;;;9.00;99.90;;;;;;4969034;28;20046;-57
2023/03/28 12:13:08;;;;;;;10.48;2.40;;;9.00;99.90;;;;;;4968812;28;20050;-57
2023/03/28 12:15:53;;;;;;;11.40;2.72;;;8.90;99.90;;;;;;4968061;28;20043;-53
2023/03/28 12:18:37;;;;;;;5.97;2.22;;;8.90;99.90;;;;;;4970940;28;20043;-56
2023/03/28 12:21:32;;;;;;;7.90;2.50;;;8.90;99.90;;;;;;4943859;28;20045;-52
2023/03/28 12:24:04;;;;;;;7.20;2.50;;;8.80;99.90;;;;;;4976933;28;20418;-54
2023/03/28 12:26:56;;;;;;;16.00;2.75;;;8.70;99.90;;;;;;4972941;28;20137;-54
2023/03/28 12:29:47;;;;;;;7.45;2.28;;;8.50;99.90;;;;;;4956698;28;20054;-49
2023/03/28 12:32:31;;;;;;;10.15;2.53;;;8.50;99.90;;;;;;4974880;28;20117;-57
2023/03/28 12:35:23;;;;;;;9.52;2.75;;;8.60;99.90;;;;;;4973802;28;20050;-60
2023/03/28 12:38:08;;;;;;;10.07;2.42;;;8.60;99.90;;;;;;4974047;28;20051;-59
2023/03/28 12:40:59;;;;;;;11.38;2.55;;;8.70;99.90;;;;;;4978144;28;20035;-59
2023/03/28 12:43:54;;;;;;;36.17;4.07;;;8.70;99.90;;;;;;4980775;28;20046;-58
2023/03/28 12:46:25;;;;;;;14.70;3.60;;;8.70;99.90;;;;;;4983571;28;20414;-54
2023/03/28 12:49:20;;;;;;;9.68;2.10;;;8.80;99.90;;;;;;4976350;28;20054;-56
2023/03/28 12:51:55;;;;;;;8.68;2.30;;;8.90;99.90;;;;;;4979660;28;20039;-56
2023/03/28 12:54:25;;;;;;;6.35;2.20;;;8.90;99.90;;;;;;4972232;28;20040;-59
2023/03/28 12:57:06;;;;;;;7.88;2.17;;;8.90;99.90;;;;;;4977061;28;20093;-58
2023/03/28 12:59:37;;;;;;;7.05;2.63;;;8.90;99.90;;;;;;4976373;28;20042;-55
2023/03/28 13:02:33;;;;;;;6.15;2.30;;;9.00;99.90;;;;;;4980274;28;20069;-58
2023/03/28 13:05:23;;;;;;;5.47;2.17;;;9.10;99.90;;;;;;4985046;28;20054;-59
2023/03/28 13:07:52;;;;;;;7.63;2.67;;;9.20;99.90;;;;;;4981190;28;20051;-60
2023/03/28 13:10:37;;;;;;;7.68;2.33;;;9.20;99.90;;;;;;4985447;28;20046;-55
2023/03/28 13:13:12;;;;;;;6.10;2.20;;;9.20;99.90;;;;;;4976634;28;20031;-57
2023/03/28 13:16:04;;;;;;;7.13;2.90;;;9.20;99.90;;;;;;4976276;28;20058;-60
2023/03/28 13:18:32;;;;;;;6.35;2.50;;;9.20;99.90;;;;;;4975941;28;20474;-59
2023/03/28 13:21:01;;;;;;;5.45;2.50;;;9.30;99.90;;;;;;4985441;28;20054;-60
2023/03/28 13:23:34;;;;;;;8.30;2.60;;;9.40;99.90;;;;;;4977566;28;20042;-57
2023/03/28 13:26:03;;;;;;;6.13;2.60;;;9.50;99.90;;;;;;4984989;28;20038;-58